createdAt,value
2022-09-15T00:00:51.430Z,12.9
2022-09-15T00:10:51.926Z,12.9
2022-09-15T00:20:52.295Z,12.8
2022-09-15T00:30:53.161Z,12.6
2022-09-15T00:40:53.217Z,12.5
2022-09-15T00:50:53.592Z,12.4
2022-09-15T01:00:53.776Z,12.2
2022-09-15T01:10:53.808Z,12.1
2022-09-15T01:20:54.280Z,12.1
2022-09-15T01:30:54.580Z,12
2022-09-15T01:40:54.772Z,12.1
2022-09-15T01:50:55.769Z,12.1
2022-09-15T02:00:56.069Z,12.1
2022-09-15T02:10:57.027Z,12.2
2022-09-15T02:20:57.628Z,12.2
2022-09-15T02:30:58.347Z,12.3
2022-09-15T02:40:59.398Z,12.4
2022-09-15T02:50:59.553Z,12.7
2022-09-15T03:00:59.941Z,12.9
2022-09-15T03:11:00.646Z,13.1
2022-09-15T03:21:01.000Z,13.2
2022-09-15T03:31:01.763Z,13.2
2022-09-15T03:41:02.679Z,13.2
2022-09-15T03:51:03.379Z,13.2
2022-09-15T04:01:04.307Z,13.2
2022-09-15T04:11:04.876Z,13.3
2022-09-15T04:21:05.502Z,13.3
2022-09-15T04:31:06.354Z,13.2
2022-09-15T04:41:07.071Z,13.2
2022-09-15T04:51:07.890Z,13.3
2022-09-15T05:01:08.127Z,13.4
2022-09-15T05:11:08.594Z,13.4
2022-09-15T05:31:09.935Z,13.4
2022-09-15T05:41:10.283Z,13.5
2022-09-15T06:01:10.704Z,13.7
2022-09-15T06:11:11.577Z,13.8
2022-09-15T06:21:11.839Z,13.8
2022-09-15T06:31:12.730Z,13.9
2022-09-15T06:41:13.310Z,14
2022-09-15T06:51:13.836Z,14
2022-09-15T07:01:14.701Z,14.2
2022-09-15T07:11:15.038Z,14.3
2022-09-15T07:21:16.021Z,14.4
2022-09-15T07:31:16.652Z,14.5
2022-09-15T07:41:17.348Z,14.7
2022-09-15T07:51:18.057Z,14.6
2022-09-15T08:01:18.818Z,14.8
2022-09-15T08:21:19.907Z,15.1
2022-09-15T08:41:21.456Z,15.4
2022-09-15T08:51:21.591Z,15.5
2022-09-15T09:01:21.911Z,15.8
2022-09-15T09:11:22.480Z,16
2022-09-15T09:21:22.870Z,16.1
2022-09-15T09:31:23.704Z,16.3
2022-09-15T09:41:24.131Z,15.9
2022-09-15T09:51:24.503Z,15.2
2022-09-15T10:01:25.517Z,14.7
2022-09-15T10:11:26.023Z,14.5
2022-09-15T10:21:26.425Z,14.5
2022-09-15T10:31:26.575Z,14.9
2022-09-15T10:41:26.676Z,15
2022-09-15T10:41:48.608Z,15
2022-09-15T10:51:32.634Z,15.4
2022-09-15T11:01:33.084Z,15.8
2022-09-15T11:11:33.275Z,16.6
2022-09-15T11:21:34.252Z,17.1
2022-09-15T11:31:35.151Z,17.7
2022-09-15T11:41:35.784Z,17.8
2022-09-15T11:51:36.537Z,17.3
2022-09-15T12:01:37.135Z,17.9
2022-09-15T12:11:37.718Z,17.6
2022-09-15T12:21:38.702Z,17.2
2022-09-15T12:31:39.545Z,17.2
2022-09-15T12:41:39.801Z,17.2
2022-09-15T12:51:40.218Z,18.4
2022-09-15T13:01:40.409Z,18.8
2022-09-15T13:11:41.342Z,18.5
2022-09-15T13:21:41.909Z,18.3
2022-09-15T13:31:42.255Z,18.2
2022-09-15T13:41:42.739Z,18.4
2022-09-15T13:51:43.603Z,18.2
2022-09-15T14:01:44.005Z,18.2
2022-09-15T14:11:44.778Z,18.3
2022-09-15T14:21:45.725Z,19.1
2022-09-15T14:31:46.690Z,18.3
2022-09-15T14:41:47.216Z,17.4
2022-09-15T14:51:47.489Z,16.9
2022-09-15T15:01:48.151Z,16.8
2022-09-15T15:11:49.086Z,16.8
2022-09-15T15:21:49.766Z,16.9
2022-09-15T15:31:50.032Z,16.8
2022-09-15T15:41:50.526Z,17
2022-09-15T15:51:51.030Z,17.1
2022-09-15T16:01:51.577Z,17
2022-09-15T16:11:51.979Z,17.1
2022-09-15T16:21:52.812Z,17.1
2022-09-15T16:31:53.036Z,16.9
2022-09-15T16:51:54.187Z,16.5
2022-09-15T17:01:55.099Z,16.6
2022-09-15T17:11:56.088Z,16.6
2022-09-15T17:21:56.867Z,16.4
2022-09-15T17:31:57.694Z,16.4
2022-09-15T17:41:58.402Z,16.2
2022-09-15T17:51:58.683Z,16
2022-09-15T18:01:59.134Z,15.6
2022-09-15T18:11:59.784Z,15.3
2022-09-15T18:22:00.094Z,15.2
2022-09-15T18:32:00.245Z,15.2
2022-09-15T18:42:00.943Z,15.2
2022-09-15T18:52:01.749Z,15.1
2022-09-15T19:02:02.598Z,15.1
2022-09-15T19:12:02.940Z,15
2022-09-15T19:22:03.506Z,15
2022-09-15T19:32:04.023Z,14.9
2022-09-15T19:42:04.576Z,14.8
2022-09-15T19:52:05.438Z,14.5
2022-09-15T20:02:05.830Z,14.2
2022-09-15T20:12:06.727Z,14
2022-09-15T20:22:07.825Z,13.9
2022-09-15T20:32:08.010Z,13.9
2022-09-15T20:42:08.666Z,13.8
2022-09-15T20:52:08.897Z,13.7
2022-09-15T21:02:09.100Z,13.6
2022-09-15T21:12:10.064Z,13.5
2022-09-15T21:22:10.955Z,13.4
2022-09-15T21:32:11.098Z,13.3
2022-09-15T21:42:11.838Z,13.2
2022-09-15T21:52:12.540Z,13.2
2022-09-15T22:02:13.543Z,13.2
2022-09-15T22:12:13.796Z,13.2
2022-09-15T22:22:14.838Z,13.2
2022-09-15T22:32:15.579Z,13.1
2022-09-15T22:42:16.601Z,13.1
2022-09-15T22:52:17.656Z,13.1
2022-09-15T23:02:18.196Z,13.1
2022-09-15T23:12:18.261Z,13.1
2022-09-15T23:22:18.764Z,13
2022-09-15T23:32:19.620Z,13
2022-09-15T23:52:21.526Z,12.9
